Terminal Aerodrome Forecast
Issued by NWS

Current Version | Previous Version | Graphics & Text | Print | Product List | Glossary On
Versions: 1 2 3 4 5 6 7 8 9 10 11 12 13 14 15 16 17 18 19 20 21 22 23 24 25 26 27 28 29 30 31 32 33
844
FTUS41 KRNK 102334
TAFLWB
TAF
KLWB 102334Z 1100/1124 30007KT 6SM -SHSN OVC035
      TEMPO 1100/1104 30010G18KT 3SM -SN OVC025
     FM110400 29006KT 6SM -SHSN OVC025
     FM111500 30010G17KT P6SM BKN035
     FM112100 31009KT P6SM BKN250=

USA.gov is the U.S. government's official web portal to all federal, state and local government web resources and services.